Terminal Aerodrome Forecast
Issued by NWS Upton, NY

Home | Current Version | Previous Version | Text Only | Print | Product List | Glossary On
Versions: 1 2 3 4 5 6 7 8 9 10 11 12 13 14 15 16 17 18 19 20 21 22 23 24 25 26 27 28 29 30 31 32 33 34 35 36 37
000
FTUS41 KOKX 220726 AAA
TAFISP
TAF AMD
KISP 220726Z 2207/2306 VRB03KT 1/4SM FG OVC001
     FM221500 07007KT 1SM BR OVC004
     FM221800 07010KT 3SM BR OVC009
     FM222300 06015G23KT 4SM -RA OVC010
     FM230400 06021G29KT 3SM -RA BR OVC008=

USA.gov is the U.S. government's official web portal to all federal, state and local government web resources and services.